Time;durP1;ratioP1;P1;durP2;ratioP2;P2;SDS_P1;SDS_P2;PMS_P1;PMS_P2;Temp;Humidity;BMP_temperature;BMP_pressure;BME280_temperature;BME280_humidity;BME280_pressure;Samples;Min_cycle;Max_cycle;Signal;HPM_P1;HPM_P2
2023/07/11 00:00:49;;;;;;;10.17;6.63;;;20.10;25.80;;;;;;5097321;27;46447;-69
2023/07/11 00:03:16;;;;;;;13.73;7.70;;;20.00;26.00;;;;;;5099054;27;46594;-69
2023/07/11 00:05:41;;;;;;;10.60;7.03;;;19.90;26.10;;;;;;5098856;27;47198;-69
2023/07/11 00:08:08;;;;;;;13.53;6.67;;;19.80;26.30;;;;;;5097798;27;46704;-69
2023/07/11 00:10:34;;;;;;;12.33;7.67;;;19.70;26.60;;;;;;5093899;27;46355;-69
2023/07/11 00:13:00;;;;;;;12.10;7.03;;;19.60;26.80;;;;;;5098812;27;46436;-69
2023/07/11 00:15:25;;;;;;;13.40;8.20;;;19.50;26.90;;;;;;5103832;27;47201;-69
2023/07/11 00:17:51;;;;;;;13.93;7.70;;;19.30;26.50;;;;;;5115108;27;46417;-68
2023/07/11 00:20:18;;;;;;;12.30;7.43;;;19.30;27.30;;;;;;5099346;27;46495;-69
2023/07/11 00:22:45;;;;;;;11.80;7.60;;;19.30;27.30;;;;;;5097641;27;46682;-69
2023/07/11 00:25:11;;;;;;;17.43;8.30;;;19.30;27.40;;;;;;5096906;27;47127;-70
2023/07/11 00:27:38;;;;;;;16.43;7.37;;;19.20;27.50;;;;;;5096669;27;46658;-69
2023/07/11 00:30:06;;;;;;;16.30;8.17;;;19.20;27.70;;;;;;5099730;27;46412;-69
2023/07/11 00:32:32;;;;;;;15.53;8.40;;;19.20;27.70;;;;;;5097463;27;46730;-69
2023/07/11 00:34:59;;;;;;;18.60;8.53;;;19.30;27.70;;;;;;5098529;27;47321;-69
2023/07/11 00:37:25;;;;;;;15.10;9.13;;;19.30;27.70;;;;;;5097742;27;46707;-69
2023/07/11 00:39:51;;;;;;;12.40;7.97;;;19.30;27.80;;;;;;5100942;27;46795;-69
2023/07/11 00:42:16;;;;;;;12.27;8.00;;;19.30;27.80;;;;;;5101178;27;46761;-69
2023/07/11 00:45:01;;;;;;;12.77;7.50;;;19.20;27.80;;;;;;5096814;27;46528;-69
2023/07/11 00:47:27;;;;;;;18.33;7.47;;;19.20;28.00;;;;;;5096721;27;46782;-69
2023/07/11 00:49:58;;;;;;;20.23;7.50;;;19.10;27.80;;;;;;5098984;27;46425;-69
2023/07/11 00:52:24;;;;;;;14.60;7.63;;;19.10;28.00;;;;;;5101094;27;46446;-69
2023/07/11 00:54:54;;;;;;;14.77;8.20;;;19.00;28.00;;;;;;5097423;27;46508;-69
2023/07/11 00:57:22;;;;;;;12.63;7.70;;;19.00;28.10;;;;;;5098858;27;46422;-69
2023/07/11 00:59:48;;;;;;;12.83;8.57;;;19.00;28.20;;;;;;5100282;27;46490;-69
2023/07/11 01:02:23;;;;;;;12.00;7.43;;;19.00;28.30;;;;;;5098264;27;46523;-69
2023/07/11 01:04:49;;;;;;;13.00;8.63;;;19.00;28.40;;;;;;5099835;27;46165;-69
2023/07/11 01:07:19;;;;;;;15.77;8.83;;;19.00;28.40;;;;;;5097632;27;46471;-69
2023/07/11 01:09:45;;;;;;;13.20;9.00;;;18.90;28.40;;;;;;5115419;27;46384;-70
2023/07/11 01:12:14;;;;;;;13.30;7.47;;;18.90;28.50;;;;;;5098586;27;46476;-69
2023/07/11 01:14:42;;;;;;;12.07;8.07;;;18.80;28.40;;;;;;5101632;27;46757;-69
2023/07/11 01:17:23;;;;;;;14.00;9.20;;;18.80;28.70;;;;;;5099648;27;46537;-69
2023/07/11 01:19:49;;;;;;;14.30;8.73;;;18.70;29.10;;;;;;5097190;27;46719;-69
2023/07/11 01:22:14;;;;;;;16.27;9.10;;;18.60;29.00;;;;;;5097506;27;46658;-69
2023/07/11 01:24:40;;;;;;;13.30;8.60;;;18.50;29.10;;;;;;5098458;27;46532;-69
2023/07/11 01:27:06;;;;;;;14.83;8.60;;;18.50;29.20;;;;;;5098876;27;46449;-69
2023/07/11 01:29:32;;;;;;;11.90;8.30;;;18.50;29.30;;;;;;5098717;27;46777;-68
2023/07/11 01:31:58;;;;;;;15.43;8.53;;;18.50;29.40;;;;;;5093839;27;46506;-69
2023/07/11 01:34:25;;;;;;;12.80;8.70;;;18.50;29.50;;;;;;5097934;27;47396;-69
2023/07/11 01:36:50;;;;;;;17.70;8.90;;;18.40;29.60;;;;;;5098022;27;46464;-69
2023/07/11 01:39:16;;;;;;;16.00;8.63;;;18.50;29.70;;;;;;5101240;27;46611;-69
2023/07/11 01:41:42;;;;;;;13.60;8.30;;;18.40;29.80;;;;;;5097276;27;46406;-69
2023/07/11 01:44:10;;;;;;;13.37;7.80;;;18.40;29.80;;;;;;5097678;27;46375;-70
2023/07/11 01:46:35;;;;;;;15.17;8.17;;;18.40;29.90;;;;;;5096627;27;46476;-69
2023/07/11 01:49:02;;;;;;;13.67;8.77;;;18.40;30.00;;;;;;5097655;27;46671;-69
2023/07/11 01:51:28;;;;;;;12.37;9.23;;;18.30;30.00;;;;;;5097288;27;46440;-69
2023/07/11 01:53:54;;;;;;;12.90;8.70;;;18.20;30.10;;;;;;5095883;27;47285;-69
2023/07/11 01:56:19;;;;;;;20.57;9.30;;;18.20;30.30;;;;;;5096771;27;46679;-69
2023/07/11 01:58:45;;;;;;;15.70;8.83;;;18.10;30.40;;;;;;5098017;27;46699;-70
2023/07/11 02:01:11;;;;;;;15.20;9.17;;;18.10;30.50;;;;;;5093968;27;46342;-69
2023/07/11 02:03:36;;;;;;;16.43;9.17;;;18.10;30.50;;;;;;5096891;27;46438;-69
2023/07/11 02:06:02;;;;;;;26.73;11.03;;;18.10;30.60;;;;;;5095658;27;46542;-69
2023/07/11 02:08:27;;;;;;;16.27;9.63;;;18.10;30.80;;;;;;5097855;27;46550;-70
2023/07/11 02:10:53;;;;;;;13.70;8.60;;;18.10;31.00;;;;;;5102234;27;46602;-70
2023/07/11 02:13:19;;;;;;;16.77;9.50;;;18.10;31.10;;;;;;5103497;27;46410;-71
2023/07/11 02:15:44;;;;;;;16.37;10.10;;;18.10;31.20;;;;;;5103590;27;46710;-69
2023/07/11 02:18:10;;;;;;;11.73;9.13;;;18.10;31.50;;;;;;5103582;27;46749;-69
2023/07/11 02:20:41;;;;;;;16.80;10.03;;;18.00;31.70;;;;;;5104339;27;46490;-69
2023/07/11 02:23:07;;;;;;;13.73;9.10;;;18.00;32.20;;;;;;5105011;27;46331;-70
2023/07/11 02:25:32;;;;;;;17.67;9.00;;;18.00;32.20;;;;;;5101370;27;46695;-70
2023/07/11 02:27:58;;;;;;;17.30;9.30;;;18.00;32.20;;;;;;5106719;27;46350;-69
2023/07/11 02:30:23;;;;;;;13.13;9.60;;;17.90;32.20;;;;;;5101185;27;46416;-70
2023/07/11 02:32:49;;;;;;;15.93;8.30;;;17.90;32.10;;;;;;5098663;27;46344;-69
2023/07/11 02:35:15;;;;;;;19.23;9.10;;;18.00;32.20;;;;;;5102665;27;46464;-71
2023/07/11 02:37:40;;;;;;;15.70;8.67;;;17.90;32.10;;;;;;5099969;27;46225;-71
2023/07/11 02:40:06;;;;;;;13.63;9.00;;;18.00;32.20;;;;;;5102300;27;46646;-70
2023/07/11 02:42:32;;;;;;;11.57;7.87;;;18.00;32.20;;;;;;5099960;27;47002;-70
2023/07/11 02:44:57;;;;;;;19.13;9.13;;;18.00;32.20;;;;;;5101006;27;46168;-72
2023/07/11 02:47:23;;;;;;;16.63;9.77;;;18.00;32.20;;;;;;5103221;27;46463;-70
2023/07/11 02:49:49;;;;;;;13.53;9.33;;;18.00;32.20;;;;;;5103144;27;46615;-70
2023/07/11 02:52:14;;;;;;;16.90;9.97;;;18.00;32.30;;;;;;5107989;27;46413;-70
2023/07/11 02:54:40;;;;;;;16.67;9.67;;;18.00;32.20;;;;;;5098196;27;46400;-71
2023/07/11 02:57:11;;;;;;;14.23;8.70;;;17.90;32.20;;;;;;5100981;27;46499;-71
2023/07/11 02:59:37;;;;;;;16.13;9.00;;;17.90;32.30;;;;;;5098903;27;46589;-70
2023/07/11 03:02:03;;;;;;;14.63;8.47;;;17.80;32.70;;;;;;5102031;27;47639;-70
2023/07/11 03:04:30;;;;;;;18.80;8.47;;;17.70;32.90;;;;;;5102781;27;46758;-71
2023/07/11 03:06:58;;;;;;;16.00;8.57;;;17.60;33.30;;;;;;5101988;27;45823;-70
2023/07/11 03:09:25;;;;;;;18.30;8.17;;;17.50;33.30;;;;;;5101303;27;46548;-73
2023/07/11 03:11:52;;;;;;;17.30;9.10;;;17.50;33.30;;;;;;5106361;27;46248;-72
2023/07/11 03:14:18;;;;;;;23.60;9.37;;;17.50;33.20;;;;;;5102879;27;46363;-71
2023/07/11 03:16:44;;;;;;;13.60;8.30;;;17.50;33.10;;;;;;5099243;27;46415;-71
2023/07/11 03:19:10;;;;;;;14.93;8.40;;;17.50;33.10;;;;;;5099137;27;46464;-71
2023/07/11 03:21:35;;;;;;;15.80;8.73;;;17.50;33.30;;;;;;5097891;27;46652;-71
2023/07/11 03:24:01;;;;;;;19.10;9.20;;;17.50;33.10;;;;;;5100359;27;46336;-71
2023/07/11 03:26:27;;;;;;;19.03;9.37;;;17.50;33.10;;;;;;5101328;27;46329;-71
2023/07/11 03:28:52;;;;;;;17.90;9.80;;;17.50;33.00;;;;;;5102132;27;46734;-71
2023/07/11 03:31:18;;;;;;;13.73;8.97;;;17.60;33.10;;;;;;5097266;27;47310;-71
2023/07/11 03:33:46;;;;;;;19.20;9.10;;;17.60;33.10;;;;;;5100247;27;46398;-73
2023/07/11 03:36:12;;;;;;;18.07;9.20;;;17.60;33.20;;;;;;5097652;27;45920;-73
2023/07/11 03:38:37;;;;;;;15.83;9.30;;;17.60;33.30;;;;;;5099744;27;46557;-73
2023/07/11 03:41:03;;;;;;;15.10;9.27;;;17.60;33.50;;;;;;5102550;27;47320;-69
2023/07/11 03:43:29;;;;;;;13.07;8.60;;;17.60;33.70;;;;;;5098211;27;46639;-71
2023/07/11 03:45:54;;;;;;;20.00;8.77;;;17.60;33.60;;;;;;5100549;27;46704;-73
2023/07/11 03:48:20;;;;;;;14.17;9.10;;;17.60;33.80;;;;;;5100049;27;46635;-73
2023/07/11 03:50:46;;;;;;;18.77;8.00;;;17.60;33.80;;;;;;5100172;27;47075;-72
2023/07/11 03:53:12;;;;;;;15.17;9.23;;;17.60;33.70;;;;;;5098349;27;46565;-72
2023/07/11 03:55:38;;;;;;;13.50;8.97;;;17.60;33.50;;;;;;5099402;27;46727;-72
2023/07/11 03:58:03;;;;;;;17.53;8.90;;;17.60;33.40;;;;;;5097764;27;46696;-73
2023/07/11 04:00:29;;;;;;;17.30;8.67;;;17.70;33.30;;;;;;5099146;27;46483;-73
2023/07/11 04:02:54;;;;;;;20.13;8.37;;;17.80;34.40;;;;;;5100360;27;46870;-73
2023/07/11 04:05:20;;;;;;;18.03;8.40;;;17.80;32.90;;;;;;5098222;27;46419;-72
2023/07/11 04:07:46;;;;;;;16.30;8.50;;;17.90;34.10;;;;;;5097619;27;46468;-73
2023/07/11 04:10:12;;;;;;;21.80;8.50;;;18.00;32.30;;;;;;5099038;27;46746;-72
2023/07/11 04:12:39;;;;;;;24.30;8.93;;;18.10;32.40;;;;;;5100302;27;46711;-71
2023/07/11 04:15:06;;;;;;;19.17;8.60;;;18.20;32.40;;;;;;5101413;27;45881;-72
2023/07/11 04:17:32;;;;;;;21.53;8.20;;;18.30;32.50;;;;;;5098331;27;46614;-73
2023/07/11 04:19:58;;;;;;;14.87;8.67;;;18.40;32.60;;;;;;5099244;27;46448;-73
2023/07/11 04:22:23;;;;;;;12.43;7.27;;;18.50;32.20;;;;;;5099392;27;46998;-72
2023/07/11 04:24:49;;;;;;;21.40;8.90;;;18.50;31.90;;;;;;5101579;27;46454;-72
2023/07/11 04:27:14;;;;;;;13.87;8.67;;;18.60;31.80;;;;;;5098672;27;46592;-73
2023/07/11 04:29:40;;;;;;;23.03;8.43;;;18.60;32.00;;;;;;5101176;27;47103;-73
2023/07/11 04:32:06;;;;;;;14.60;8.50;;;18.50;32.00;;;;;;5099549;27;46403;-72
2023/07/11 04:34:32;;;;;;;17.07;8.80;;;18.60;32.20;;;;;;5098016;27;46428;-72
2023/07/11 04:36:58;;;;;;;22.23;8.47;;;18.60;32.20;;;;;;5100672;27;46419;-72
2023/07/11 04:39:24;;;;;;;13.67;8.77;;;18.70;32.20;;;;;;5099552;27;47541;-73
2023/07/11 04:41:49;;;;;;;18.43;8.30;;;18.80;31.60;;;;;;5101690;27;46461;-72
2023/07/11 04:44:15;;;;;;;16.47;8.03;;;18.90;30.90;;;;;;5099922;27;46443;-74
2023/07/11 04:46:41;;;;;;;15.70;8.63;;;19.20;30.40;;;;;;5100396;27;46920;-72
2023/07/11 04:49:06;;;;;;;24.93;9.00;;;19.40;29.80;;;;;;5099334;27;46373;-72
2023/07/11 04:51:32;;;;;;;22.87;8.20;;;20.00;28.90;;;;;;5099399;27;46462;-73
2023/07/11 04:53:57;;;;;;;15.83;7.63;;;21.30;27.40;;;;;;5101838;27;46514;-72
2023/07/11 04:56:23;;;;;;;16.10;7.60;;;22.70;25.00;;;;;;5098611;27;45895;-74
2023/07/11 04:58:49;;;;;;;17.70;7.77;;;23.80;23.10;;;;;;5098008;27;46453;-72
2023/07/11 05:01:17;;;;;;;16.20;7.40;;;24.80;21.10;;;;;;5096312;27;46516;-72
2023/07/11 05:03:44;;;;;;;12.40;7.03;;;25.50;19.40;;;;;;5098273;27;46470;-72
2023/07/11 05:06:12;;;;;;;22.93;7.67;;;25.90;18.30;;;;;;5097628;27;46605;-71
2023/07/11 05:08:38;;;;;;;16.57;7.70;;;26.60;16.90;;;;;;5097191;27;46520;-73
2023/07/11 05:11:04;;;;;;;18.73;7.23;;;27.30;15.30;;;;;;5099299;27;46417;-71
2023/07/11 05:13:31;;;;;;;13.83;7.07;;;28.10;14.80;;;;;;5097725;27;46126;-72
2023/07/11 05:16:08;;;;;;;13.10;6.80;;;28.60;12.20;;;;;;5097360;27;46950;-70
2023/07/11 05:18:40;;;;;;;14.93;7.47;;;29.30;10.10;;;;;;5096632;27;47326;-73
2023/07/11 05:21:08;;;;;;;13.20;7.93;;;29.60;9.70;;;;;;5097813;27;46726;-70
2023/07/11 05:23:34;;;;;;;17.00;7.47;;;30.30;8.10;;;;;;5096366;27;46391;-72
2023/07/11 05:26:00;;;;;;;10.40;6.37;;;30.70;6.50;;;;;;5095850;27;46473;-72
2023/07/11 05:28:26;;;;;;;10.60;7.20;;;31.10;6.20;;;;;;5097513;27;47120;-72
2023/07/11 05:30:53;;;;;;;11.00;6.97;;;31.50;4.90;;;;;;5095897;27;46307;-72
2023/07/11 05:33:19;;;;;;;12.27;7.27;;;31.70;4.20;;;;;;5099671;27;46020;-72
2023/07/11 05:36:51;;;;;;;16.47;7.43;;;32.20;2.80;;;;;;5095703;27;46500;-72
2023/07/11 05:38:45;;;;;;;13.00;7.00;;;32.50;2.00;;;;;;5083701;27;46559;-71
2023/07/11 05:41:11;;;;;;;12.40;6.70;;;32.90;1.50;;;;;;5096204;27;46355;-71
2023/07/11 05:43:36;;;;;;;12.37;7.37;;;33.00;1.00;;;;;;5099604;27;45920;-69
2023/07/11 05:46:02;;;;;;;10.90;6.60;;;33.20;1.00;;;;;;5100945;27;46459;-73
2023/07/11 05:48:27;;;;;;;14.57;6.40;;;33.40;1.00;;;;;;5100852;27;46609;-70
2023/07/11 05:51:06;;;;;;;14.53;7.10;;;33.50;1.00;;;;;;5099180;27;46399;-71
2023/07/11 05:53:33;;;;;;;14.77;6.53;;;33.70;1.00;;;;;;5099857;27;46606;-71
2023/07/11 05:55:59;;;;;;;8.80;6.50;;;33.90;1.00;;;;;;5102142;27;45865;-71
2023/07/11 05:58:26;;;;;;;9.47;6.00;;;34.10;1.00;;;;;;5099515;27;46494;-70
2023/07/11 06:00:52;;;;;;;11.57;6.57;;;33.00;1.00;;;;;;5100545;27;46635;-72
2023/07/11 06:03:19;;;;;;;14.73;6.73;;;31.90;3.20;;;;;;5100745;27;46523;-71
2023/07/11 06:05:45;;;;;;;13.40;6.20;;;31.20;4.30;;;;;;5100369;27;46699;-71
2023/07/11 06:08:12;;;;;;;11.23;5.67;;;30.80;4.90;;;;;;5100151;27;46644;-71
2023/07/11 06:10:38;;;;;;;10.20;6.50;;;30.40;5.50;;;;;;5099628;27;47466;-71
2023/07/11 06:13:04;;;;;;;13.87;5.53;;;30.10;5.90;;;;;;5101004;27;46536;-71
2023/07/11 06:15:30;;;;;;;9.57;5.60;;;29.80;6.00;;;;;;5102865;27;46533;-70
2023/07/11 06:17:55;;;;;;;11.50;5.43;;;29.40;4.90;;;;;;5101315;27;46769;-72
2023/07/11 06:20:23;;;;;;;13.03;6.43;;;29.30;5.80;;;;;;5101859;27;46382;-71
2023/07/11 06:22:48;;;;;;;9.27;6.10;;;29.10;5.70;;;;;;5096308;27;46411;-72
2023/07/11 06:25:14;;;;;;;9.07;5.70;;;29.00;5.60;;;;;;5101700;27;46540;-71
2023/07/11 06:27:39;;;;;;;8.50;5.90;;;28.80;5.50;;;;;;5100212;27;47844;-72
2023/07/11 06:30:06;;;;;;;10.77;6.07;;;28.80;5.50;;;;;;5102328;27;46715;-71
2023/07/11 06:32:31;;;;;;;10.53;5.80;;;28.80;5.50;;;;;;5101464;27;46903;-71
2023/07/11 06:34:57;;;;;;;14.60;5.90;;;28.80;5.50;;;;;;5103126;27;46429;-72
2023/07/11 06:37:22;;;;;;;15.60;6.10;;;28.80;5.50;;;;;;5099284;27;46516;-71
2023/07/11 06:39:48;;;;;;;9.97;6.27;;;28.80;5.50;;;;;;5100812;27;46491;-71
2023/07/11 06:42:15;;;;;;;11.97;6.40;;;28.80;5.50;;;;;;5100972;27;46442;-71
2023/07/11 06:44:41;;;;;;;14.53;6.83;;;28.80;5.50;;;;;;5100778;27;46527;-71
2023/07/11 06:47:06;;;;;;;9.20;5.87;;;28.90;5.60;;;;;;5100059;27;47498;-71
2023/07/11 06:49:32;;;;;;;9.10;6.20;;;29.00;5.00;;;;;;5102155;27;46487;-71
2023/07/11 06:51:57;;;;;;;10.50;5.83;;;29.10;4.50;;;;;;5101005;27;45803;-71
2023/07/11 06:54:23;;;;;;;11.40;6.43;;;28.90;4.40;;;;;;5099987;27;45960;-71
2023/07/11 06:56:48;;;;;;;8.47;5.30;;;28.90;4.10;;;;;;5101098;27;46708;-71
2023/07/11 06:59:21;;;;;;;9.43;5.43;;;29.20;3.80;;;;;;5098581;27;46465;-71
2023/07/11 07:01:48;;;;;;;11.53;5.57;;;29.40;2.80;;;;;;5104305;27;46548;-71
2023/07/11 07:04:14;;;;;;;9.43;4.83;;;29.30;2.40;;;;;;5101113;27;46521;-71
2023/07/11 07:06:41;;;;;;;14.47;5.53;;;29.30;1.90;;;;;;5096732;27;47109;-71
2023/07/11 07:09:06;;;;;;;8.57;5.23;;;29.20;1.80;;;;;;5098871;27;46469;-71
2023/07/11 07:11:35;;;;;;;10.30;5.40;;;29.40;1.80;;;;;;5100152;27;46465;-71
2023/07/11 07:14:05;;;;;;;8.73;5.27;;;29.40;1.40;;;;;;5102131;27;46549;-71
2023/07/11 07:16:32;;;;;;;9.00;5.30;;;29.50;1.20;;;;;;5098438;27;49184;-71
2023/07/11 07:18:58;;;;;;;9.93;5.90;;;29.40;1.00;;;;;;5099651;27;46526;-70
2023/07/11 07:21:24;;;;;;;7.17;4.93;;;29.50;1.00;;;;;;5104474;27;46774;-70
2023/07/11 07:23:49;;;;;;;8.27;5.47;;;29.70;1.00;;;;;;5100977;27;46477;-71
2023/07/11 07:26:15;;;;;;;8.40;5.30;;;29.80;1.00;;;;;;5101832;27;47117;-70
2023/07/11 07:28:41;;;;;;;8.73;4.70;;;29.80;1.00;;;;;;5098764;27;46478;-71
2023/07/11 07:31:06;;;;;;;7.00;4.80;;;29.90;1.00;;;;;;5098916;27;46472;-71
2023/07/11 07:33:32;;;;;;;9.10;5.20;;;30.00;1.00;;;;;;5102397;27;46523;-70
2023/07/11 07:36:02;;;;;;;10.10;4.83;;;30.20;1.00;;;;;;5102458;27;47972;-70
2023/07/11 07:38:28;;;;;;;8.43;4.83;;;30.20;1.00;;;;;;5099274;27;46416;-71
2023/07/11 07:41:02;;;;;;;8.43;4.93;;;30.20;1.00;;;;;;5098730;27;46694;-72
2023/07/11 07:43:30;;;;;;;10.67;4.90;;;30.10;1.00;;;;;;5102800;27;46493;-71
2023/07/11 07:45:57;;;;;;;9.63;4.83;;;30.20;1.00;;;;;;5102556;27;46443;-71
2023/07/11 07:48:24;;;;;;;12.27;5.50;;;30.40;1.00;;;;;;5099431;27;46500;-71
2023/07/11 07:50:49;;;;;;;11.20;5.20;;;30.50;1.00;;;;;;5100332;27;46401;-71
2023/07/11 07:53:16;;;;;;;10.03;5.47;;;30.60;1.00;;;;;;5101940;27;46370;-71
2023/07/11 07:55:43;;;;;;;9.37;5.23;;;30.80;1.00;;;;;;5097558;27;46445;-70
2023/07/11 07:58:10;;;;;;;8.27;4.90;;;30.90;1.00;;;;;;5099346;27;45884;-71
2023/07/11 08:00:36;;;;;;;10.37;4.90;;;30.90;1.00;;;;;;5098791;27;46363;-71
2023/07/11 08:03:02;;;;;;;10.13;4.77;;;31.10;1.00;;;;;;5100931;27;46351;-71
2023/07/11 08:05:29;;;;;;;14.60;5.17;;;31.10;1.00;;;;;;5102593;27;46953;-71
2023/07/11 08:07:55;;;;;;;9.07;4.70;;;31.10;1.00;;;;;;5097965;27;46714;-71
2023/07/11 08:10:20;;;;;;;9.27;5.00;;;31.10;1.00;;;;;;5101241;27;46525;-71
2023/07/11 08:12:46;;;;;;;8.27;4.87;;;31.30;1.00;;;;;;5099579;27;46361;-71
2023/07/11 08:15:12;;;;;;;8.70;4.77;;;31.40;1.00;;;;;;5099550;27;46974;-71
2023/07/11 08:17:40;;;;;;;8.20;5.40;;;31.50;1.00;;;;;;5097099;27;46399;-71
2023/07/11 08:20:08;;;;;;;9.07;5.50;;;31.60;1.00;;;;;;5100282;27;46540;-71
2023/07/11 08:22:33;;;;;;;11.53;4.93;;;31.70;1.00;;;;;;5101300;27;46374;-71
2023/07/11 08:24:59;;;;;;;6.73;4.40;;;31.70;1.00;;;;;;5099735;27;47327;-71
2023/07/11 08:27:25;;;;;;;13.00;5.40;;;31.70;1.00;;;;;;5102968;27;46399;-71
2023/07/11 08:29:50;;;;;;;9.43;5.40;;;31.70;1.00;;;;;;5100159;27;46383;-71
2023/07/11 08:32:19;;;;;;;11.73;5.50;;;31.70;1.00;;;;;;5093452;22;46708;-73
2023/07/11 08:34:45;;;;;;;9.00;4.87;;;31.80;1.00;;;;;;5041720;28;46737;-73
2023/07/11 08:37:12;;;;;;;9.40;4.90;;;31.80;1.00;;;;;;5046416;28;46159;-72
2023/07/11 08:39:38;;;;;;;15.00;5.60;;;31.90;1.00;;;;;;5064785;28;46473;-73
2023/07/11 08:42:14;;;;;;;8.90;5.50;;;31.90;1.00;;;;;;5064515;28;46615;-73
2023/07/11 08:44:57;;;;;;;11.30;5.30;;;32.00;1.00;;;;;;5044716;28;48095;-73
2023/07/11 08:47:31;;;;;;;9.63;4.37;;;32.00;1.00;;;;;;5064829;28;46438;-74
2023/07/11 08:50:02;;;;;;;9.30;5.40;;;32.00;1.00;;;;;;5047517;28;46158;-73
2023/07/11 08:52:29;;;;;;;10.40;5.00;;;32.10;1.00;;;;;;5046719;28;46510;-73
2023/07/11 08:55:00;;;;;;;9.50;4.53;;;32.10;1.00;;;;;;5052700;28;48000;-73
2023/07/11 08:57:29;;;;;;;9.40;5.03;;;32.20;1.00;;;;;;5061747;28;46488;-73
2023/07/11 09:00:02;;;;;;;10.83;5.63;;;32.30;1.00;;;;;;5056724;28;46463;-72
2023/07/11 09:02:58;;;;;;;14.83;6.10;;;32.30;1.00;;;;;;5067756;28;46565;-74
2023/07/11 09:05:32;;;;;;;10.33;5.33;;;32.30;1.00;;;;;;5052398;28;46394;-73
2023/07/11 09:07:58;;;;;;;9.77;5.90;;;32.40;1.00;;;;;;5043990;28;46370;-72
2023/07/11 09:11:01;;;;;;;8.77;5.40;;;32.50;1.00;;;;;;5044500;28;46462;-73
2023/07/11 09:13:45;;;;;;;16.00;6.30;;;32.70;1.00;;;;;;5046912;28;46385;-73
2023/07/11 09:16:33;;;;;;;13.03;5.77;;;32.70;1.00;;;;;;5053874;28;47831;-74
2023/07/11 09:19:11;;;;;;;9.63;6.00;;;32.80;1.00;;;;;;5064612;28;46425;-73
2023/07/11 09:22:13;;;;;;;11.70;6.00;;;32.60;1.00;;;;;;5043572;28;46437;-75
2023/07/11 09:25:07;;;;;;;14.97;5.57;;;32.50;1.00;;;;;;5024961;28;46821;-74
2023/07/11 09:27:36;;;;;;;9.30;5.67;;;32.50;1.00;;;;;;5047760;28;46702;-72
2023/07/11 09:30:34;;;;;;;13.20;6.00;;;32.50;1.00;;;;;;5056769;28;46632;-73
2023/07/11 09:33:20;;;;;;;10.23;5.20;;;32.60;1.00;;;;;;5036131;28;46387;-75
2023/07/11 09:35:46;;;;;;;8.10;5.10;;;32.60;1.00;;;;;;5040062;28;46599;-73
2023/07/11 09:38:33;;;;;;;9.60;5.37;;;32.70;1.00;;;;;;5053396;28;47952;-72
2023/07/11 09:41:04;;;;;;;9.03;5.60;;;32.70;1.00;;;;;;5048522;28;46724;-73
2023/07/11 09:43:30;;;;;;;11.87;5.27;;;32.40;1.00;;;;;;5045170;28;46652;-73
2023/07/11 09:45:55;;;;;;;10.40;6.20;;;32.40;1.00;;;;;;5046174;28;46531;-75
2023/07/11 09:48:31;;;;;;;11.33;5.80;;;32.30;1.00;;;;;;5066776;28;48123;-73
2023/07/11 09:51:36;;;;;;;7.50;5.20;;;32.50;1.00;;;;;;5056867;28;46461;-75
2023/07/11 09:54:15;;;;;;;9.77;6.23;;;32.70;1.00;;;;;;5019645;28;46257;-73
2023/07/11 09:56:45;;;;;;;14.00;5.37;;;32.70;1.00;;;;;;5039503;28;46300;-72
2023/07/11 09:59:12;;;;;;;11.80;5.17;;;32.60;1.00;;;;;;5057092;28;46468;-75
2023/07/11 10:01:39;;;;;;;7.60;5.40;;;32.60;1.00;;;;;;5043417;28;46655;-74
2023/07/11 10:04:21;;;;;;;10.43;5.57;;;32.50;1.00;;;;;;5038854;28;46476;-73
2023/07/11 10:07:01;;;;;;;9.10;5.10;;;32.60;1.00;;;;;;5036538;28;46015;-74
2023/07/11 10:09:33;;;;;;;11.83;5.30;;;32.80;1.00;;;;;;5059042;28;46676;-74
2023/07/11 10:12:02;;;;;;;11.33;5.57;;;33.00;1.00;;;;;;5066585;28;46413;-73
2023/07/11 10:14:33;;;;;;;13.10;5.80;;;33.10;1.00;;;;;;5056394;28;46366;-73
2023/07/11 10:17:03;;;;;;;11.17;5.30;;;33.10;1.00;;;;;;5058952;28;46452;-74
2023/07/11 10:19:30;;;;;;;11.63;5.63;;;33.00;1.00;;;;;;5045080;28;48106;-75
2023/07/11 10:21:59;;;;;;;11.60;6.07;;;32.80;1.00;;;;;;5057796;28;46540;-74
2023/07/11 10:24:33;;;;;;;8.80;5.57;;;32.70;1.00;;;;;;5037884;28;46356;-74
2023/07/11 10:27:04;;;;;;;65.83;24.53;;;32.60;1.00;;;;;;5059754;28;46621;-73
2023/07/11 10:29:36;;;;;;;12.17;6.53;;;32.70;1.00;;;;;;5040136;28;48815;-75
2023/07/11 10:32:12;;;;;;;9.70;5.70;;;32.70;1.00;;;;;;5052379;28;46409;-75
2023/07/11 10:34:53;;;;;;;13.43;6.30;;;32.70;1.00;;;;;;5044409;28;46462;-74
2023/07/11 10:37:46;;;;;;;15.00;6.07;;;32.70;1.00;;;;;;5063101;28;46581;-73
2023/07/11 10:40:29;;;;;;;8.00;5.10;;;32.90;1.00;;;;;;5046639;28;47591;-73
2023/07/11 10:43:03;;;;;;;12.93;5.70;;;33.00;1.00;;;;;;5065996;28;46472;-74
2023/07/11 10:45:42;;;;;;;11.10;5.50;;;33.20;1.00;;;;;;5063490;28;46444;-74
2023/07/11 10:48:33;;;;;;;8.40;5.90;;;33.40;1.00;;;;;;5067092;28;46401;-72
2023/07/11 10:51:19;;;;;;;10.70;5.73;;;33.40;1.00;;;;;;5039780;28;48199;-72
2023/07/11 10:53:47;;;;;;;9.00;5.00;;;33.20;1.00;;;;;;5055804;28;46936;-73
2023/07/11 10:56:30;;;;;;;14.57;6.80;;;33.20;1.00;;;;;;5048628;28;46399;-74
2023/07/11 10:58:57;;;;;;;11.10;5.50;;;33.20;1.00;;;;;;5066222;28;46495;-72
2023/07/11 11:01:39;;;;;;;12.80;5.73;;;33.40;1.00;;;;;;5057915;28;46488;-74
2023/07/11 11:04:17;;;;;;;13.30;5.93;;;33.50;1.00;;;;;;5052540;28;46581;-72
2023/07/11 11:06:43;;;;;;;11.63;5.80;;;33.60;1.00;;;;;;5056038;28;46508;-72
2023/07/11 11:09:22;;;;;;;10.10;5.63;;;33.80;1.00;;;;;;5040080;28;46646;-72
2023/07/11 11:12:12;;;;;;;10.80;6.13;;;33.70;1.00;;;;;;5047508;28;47439;-73
2023/07/11 11:14:50;;;;;;;10.37;5.30;;;33.50;1.00;;;;;;5061059;28;46338;-72
2023/07/11 11:17:41;;;;;;;10.13;5.90;;;33.40;1.00;;;;;;5061184;28;46418;-72
2023/07/11 11:20:21;;;;;;;10.47;5.80;;;33.20;1.00;;;;;;5067823;28;46747;-73
2023/07/11 11:23:16;;;;;;;8.30;5.60;;;33.40;1.00;;;;;;5044887;28;49114;-74
2023/07/11 11:26:00;;;;;;;19.87;6.03;;;33.40;1.00;;;;;;5038105;28;46410;-73
2023/07/11 11:28:44;;;;;;;9.20;5.40;;;33.50;1.00;;;;;;5042200;28;46585;-73
2023/07/11 11:31:25;;;;;;;8.50;5.40;;;33.50;1.00;;;;;;5042192;28;46360;-74
2023/07/11 11:34:06;;;;;;;10.30;5.43;;;33.30;1.00;;;;;;5049722;28;46465;-74
2023/07/11 11:36:56;;;;;;;15.37;5.87;;;33.10;1.00;;;;;;5069714;28;46140;-73
2023/07/11 11:39:45;;;;;;;16.07;5.27;;;33.30;1.00;;;;;;5042573;28;46375;-74
2023/07/11 11:42:26;;;;;;;12.40;5.40;;;33.40;1.00;;;;;;5060912;27;46473;-73
2023/07/11 11:45:02;;;;;;;10.77;5.60;;;33.40;1.00;;;;;;5050262;28;46503;-73
2023/07/11 11:47:29;;;;;;;10.00;5.17;;;33.50;1.00;;;;;;5047883;28;47062;-72
2023/07/11 11:49:55;;;;;;;9.60;5.80;;;33.80;1.00;;;;;;5052306;28;46462;-72
2023/07/11 11:52:23;;;;;;;12.43;6.07;;;33.80;1.00;;;;;;5054146;28;46365;-75
2023/07/11 11:54:49;;;;;;;11.80;5.53;;;33.90;1.00;;;;;;5045354;28;48030;-73
2023/07/11 11:57:22;;;;;;;12.57;5.70;;;33.70;1.00;;;;;;5054959;28;46809;-72
2023/07/11 11:59:48;;;;;;;11.40;6.10;;;33.60;1.00;;;;;;5051035;28;46536;-73
2023/07/11 12:02:31;;;;;;;13.97;5.53;;;34.00;1.00;;;;;;5043509;28;46727;-72
2023/07/11 12:05:02;;;;;;;9.07;5.17;;;34.00;1.00;;;;;;5051861;28;48071;-71
2023/07/11 12:07:33;;;;;;;18.43;5.90;;;34.20;1.00;;;;;;5049287;28;46563;-73
2023/07/11 12:10:10;;;;;;;12.80;5.17;;;34.30;1.00;;;;;;5049232;28;46429;-76
2023/07/11 12:12:35;;;;;;;9.57;5.27;;;34.20;1.00;;;;;;5061328;28;46444;-74
2023/07/11 12:15:20;;;;;;;10.27;5.30;;;34.00;1.00;;;;;;5051772;28;48861;-73
2023/07/11 12:17:49;;;;;;;8.60;5.00;;;33.70;1.00;;;;;;5064566;28;46596;-74
2023/07/11 12:20:26;;;;;;;8.83;5.27;;;33.80;1.00;;;;;;5052086;28;46341;-72
2023/07/11 12:22:51;;;;;;;10.27;5.70;;;34.10;1.00;;;;;;5051144;28;46417;-74
2023/07/11 12:25:24;;;;;;;10.53;4.73;;;34.10;1.00;;;;;;5040164;28;49226;-73
2023/07/11 12:27:57;;;;;;;6.90;4.57;;;34.10;1.00;;;;;;5046200;28;46587;-72
2023/07/11 12:30:40;;;;;;;9.33;5.47;;;33.90;1.00;;;;;;5049633;28;46512;-74
2023/07/11 12:33:35;;;;;;;13.10;5.60;;;33.90;1.00;;;;;;5050842;28;46275;-73
2023/07/11 12:36:26;;;;;;;15.33;5.27;;;34.20;1.00;;;;;;5045092;28;48101;-73
2023/07/11 12:38:58;;;;;;;12.87;5.90;;;34.20;1.00;;;;;;5047322;28;46511;-73
2023/07/11 12:41:59;;;;;;;10.07;5.43;;;34.60;1.00;;;;;;5048774;28;46369;-73
2023/07/11 12:44:34;;;;;;;10.00;5.13;;;34.80;1.00;;;;;;5042808;28;46796;-74
2023/07/11 12:47:04;;;;;;;10.87;5.27;;;35.00;1.00;;;;;;5049075;28;47251;-74
2023/07/11 12:49:30;;;;;;;12.70;5.03;;;35.10;1.00;;;;;;5041800;28;46620;-73
2023/07/11 12:52:11;;;;;;;11.07;5.27;;;35.00;1.00;;;;;;5061834;28;46486;-73
2023/07/11 12:54:36;;;;;;;13.93;5.43;;;35.00;1.00;;;;;;5054720;28;46411;-72
2023/07/11 12:57:07;;;;;;;9.10;4.90;;;34.80;1.00;;;;;;5070217;28;47702;-74
2023/07/11 12:59:33;;;;;;;17.40;5.57;;;34.90;1.00;;;;;;5044689;28;46414;-73